Time;durP1;ratioP1;P1;durP2;ratioP2;P2;SDS_P1;SDS_P2;PMS_P1;PMS_P2;Temp;Humidity;BMP_temperature;BMP_pressure;BME280_temperature;BME280_humidity;BME280_pressure;Samples;Min_cycle;Max_cycle;Signal;HPM_P1;HPM_P2
2021/08/16 00:01:44;;;;;;;1999.90;999.90;;;22.20;99.90;;;;;;5058470;28;20257;-81
2021/08/16 00:04:09;;;;;;;1999.90;999.90;;;22.10;99.90;;;;;;5058950;28;20169;-81
2021/08/16 00:06:36;;;;;;;1999.90;999.90;;;22.10;99.90;;;;;;5058680;28;20557;-81
2021/08/16 00:09:02;;;;;;;1999.90;999.90;;;22.10;99.90;;;;;;5058180;28;20161;-82
2021/08/16 00:11:28;;;;;;;1999.90;999.90;;;22.00;99.90;;;;;;5058540;28;20894;-82
2021/08/16 00:13:53;;;;;;;1999.90;999.90;;;22.00;99.90;;;;;;5058537;28;20165;-81
2021/08/16 00:16:19;;;;;;;1999.90;999.90;;;22.00;99.90;;;;;;5058262;28;20461;-81
2021/08/16 00:18:47;;;;;;;1999.90;999.90;;;21.90;99.90;;;;;;5040157;28;20539;-83
2021/08/16 00:21:14;;;;;;;1999.90;999.90;;;21.80;99.90;;;;;;5058309;28;20188;-82
2021/08/16 00:23:40;;;;;;;1999.90;999.90;;;21.70;99.90;;;;;;5058275;28;20465;-82
2021/08/16 00:26:05;;;;;;;1999.90;999.90;;;21.70;99.90;;;;;;5039785;28;20454;-81
2021/08/16 00:28:31;;;;;;;1999.90;999.90;;;21.60;99.90;;;;;;5058045;28;20773;-81
2021/08/16 00:30:57;;;;;;;1999.90;999.90;;;21.50;99.90;;;;;;5039870;28;20192;-81
2021/08/16 00:33:22;;;;;;;1999.90;999.90;;;21.30;99.90;;;;;;5058399;28;20651;-81
2021/08/16 00:35:48;;;;;;;1999.90;999.90;;;21.20;99.90;;;;;;5058655;28;20172;-81
2021/08/16 00:38:14;;;;;;;1999.90;999.90;;;21.20;99.90;;;;;;5040045;28;20193;-82
2021/08/16 00:40:40;;;;;;;1999.90;999.90;;;21.20;99.90;;;;;;5039548;28;20181;-82
2021/08/16 00:43:06;;;;;;;1999.90;999.90;;;21.10;99.90;;;;;;5057949;28;20180;-81
2021/08/16 00:45:32;;;;;;;1999.90;999.90;;;21.00;99.90;;;;;;5040189;28;20453;-82
2021/08/16 00:47:58;;;;;;;1999.90;999.90;;;21.00;99.90;;;;;;5040074;28;20655;-81
2021/08/16 00:50:23;;;;;;;1999.90;999.90;;;20.70;99.90;;;;;;5039753;28;20468;-81
2021/08/16 00:52:50;;;;;;;1999.90;999.90;;;20.80;99.90;;;;;;5058298;28;20160;-82
2021/08/16 00:55:17;;;;;;;1999.90;999.90;;;20.80;99.90;;;;;;5039451;28;20691;-81
2021/08/16 00:57:43;;;;;;;1999.90;999.90;;;20.80;99.90;;;;;;5057526;28;20493;-81
2021/08/16 01:00:10;;;;;;;1999.90;999.90;;;20.80;99.90;;;;;;5039727;28;20412;-81
2021/08/16 01:02:42;;;;;;;1999.90;999.90;;;20.90;99.90;;;;;;5039340;28;20412;-81
2021/08/16 01:05:11;;;;;;;1999.90;999.90;;;20.70;99.90;;;;;;5039567;28;20751;-81
2021/08/16 01:07:37;;;;;;;1999.90;999.90;;;20.70;99.90;;;;;;5038872;28;21029;-82
2021/08/16 01:10:05;;;;;;;1999.90;999.90;;;20.60;98.30;;;;;;5057371;28;20474;-81
2021/08/16 01:12:32;;;;;;;1999.90;999.90;;;20.60;97.80;;;;;;5039271;28;20809;-81
2021/08/16 01:14:59;;;;;;;1999.90;999.90;;;20.50;97.90;;;;;;5056662;28;20399;-81
2021/08/16 01:17:25;;;;;;;1999.90;999.90;;;20.50;98.60;;;;;;5057136;28;20467;-81
2021/08/16 01:19:50;;;;;;;1999.90;999.90;;;20.60;96.20;;;;;;5057058;28;20404;-81
2021/08/16 01:22:17;;;;;;;1999.90;999.90;;;20.40;94.40;;;;;;5057435;28;20570;-81
2021/08/16 01:24:43;;;;;;;1999.90;999.90;;;20.30;95.10;;;;;;5057218;28;20248;-81
2021/08/16 01:27:10;;;;;;;1999.90;999.90;;;20.20;95.50;;;;;;5057110;28;20481;-81
2021/08/16 01:29:36;;;;;;;1999.90;999.90;;;20.30;95.60;;;;;;5056924;28;20405;-81
2021/08/16 01:32:02;;;;;;;1999.90;999.90;;;20.20;94.80;;;;;;5056529;28;20403;-81
2021/08/16 01:34:30;;;;;;;1999.90;999.90;;;20.30;95.30;;;;;;5038556;28;20342;-81
2021/08/16 01:36:56;;;;;;;1999.90;999.90;;;20.30;93.70;;;;;;5056381;28;20430;-81
2021/08/16 01:39:22;;;;;;;1999.90;999.90;;;20.20;94.70;;;;;;5056321;28;20399;-81
2021/08/16 01:41:48;;;;;;;1999.90;999.90;;;20.30;95.30;;;;;;5056822;28;20403;-81
2021/08/16 01:44:16;;;;;;;1999.90;999.90;;;20.50;94.60;;;;;;5056674;28;20871;-81
2021/08/16 01:46:43;;;;;;;1999.90;999.90;;;20.50;93.90;;;;;;5038273;28;20511;-81
2021/08/16 01:49:09;;;;;;;1999.90;999.90;;;20.40;91.60;;;;;;5056112;28;20413;-80
2021/08/16 01:51:36;;;;;;;1999.90;999.90;;;20.30;94.50;;;;;;5056069;28;20475;-81
2021/08/16 01:54:07;;;;;;;1999.90;999.90;;;20.20;94.80;;;;;;5056521;28;20430;-81
2021/08/16 01:56:32;;;;;;;1999.90;999.90;;;20.30;94.90;;;;;;5056379;28;20439;-81
2021/08/16 01:58:58;;;;;;;1999.90;999.90;;;20.40;94.80;;;;;;5056083;28;20408;-81
2021/08/16 02:01:24;;;;;;;1999.90;999.90;;;20.40;93.90;;;;;;5056230;28;20181;-81
2021/08/16 02:03:50;;;;;;;1999.90;999.90;;;20.40;94.20;;;;;;5056098;28;20196;-81
2021/08/16 02:06:15;;;;;;;1999.90;999.90;;;20.50;93.70;;;;;;5055870;28;20443;-81
2021/08/16 02:08:41;;;;;;;1999.90;999.90;;;20.50;93.30;;;;;;5056206;28;20195;-81
2021/08/16 02:11:08;;;;;;;1999.90;999.90;;;20.50;92.90;;;;;;5056120;28;20171;-81
2021/08/16 02:13:34;;;;;;;1999.90;999.90;;;20.50;91.50;;;;;;5038190;28;20199;-81
2021/08/16 02:16:01;;;;;;;1999.90;999.90;;;20.50;92.00;;;;;;5038176;28;20439;-81
2021/08/16 02:18:27;;;;;;;1999.90;999.90;;;20.40;92.20;;;;;;5056073;28;20790;-81
2021/08/16 02:20:53;;;;;;;1999.90;999.90;;;20.40;92.60;;;;;;5056239;28;20419;-81
2021/08/16 02:23:18;;;;;;;1999.90;999.90;;;20.40;92.50;;;;;;5055973;28;20176;-81
2021/08/16 02:25:44;;;;;;;1999.90;999.90;;;20.30;92.70;;;;;;5056112;28;20271;-81
2021/08/16 02:28:10;;;;;;;1999.90;999.90;;;20.30;93.10;;;;;;5055812;28;20186;-81
2021/08/16 02:30:35;;;;;;;1999.90;999.90;;;20.40;92.80;;;;;;5038182;28;20256;-81
2021/08/16 02:33:01;;;;;;;1999.90;999.90;;;20.40;93.00;;;;;;5056235;28;20163;-81
2021/08/16 02:35:27;;;;;;;1999.90;999.90;;;20.40;92.80;;;;;;5056102;28;20253;-81
2021/08/16 02:37:53;;;;;;;1999.90;999.90;;;20.40;92.80;;;;;;5056085;28;20198;-81
2021/08/16 02:40:18;;;;;;;1999.90;999.90;;;20.30;93.20;;;;;;5055757;28;20179;-81
2021/08/16 02:42:44;;;;;;;1999.90;999.90;;;20.30;93.40;;;;;;5038100;28;20181;-81
2021/08/16 02:45:10;;;;;;;1999.90;999.90;;;20.30;93.50;;;;;;5037451;28;20180;-81
2021/08/16 02:47:38;;;;;;;1999.90;999.90;;;20.30;93.40;;;;;;5055842;28;20829;-81
2021/08/16 02:50:04;;;;;;;1999.90;999.90;;;20.30;94.10;;;;;;5055687;28;20512;-81
2021/08/16 02:52:30;;;;;;;1999.90;999.90;;;20.30;94.30;;;;;;5055984;28;20450;-81
2021/08/16 02:54:56;;;;;;;1999.90;999.90;;;20.30;94.30;;;;;;5056279;28;20426;-81
2021/08/16 02:57:22;;;;;;;1999.90;999.90;;;20.30;93.60;;;;;;5037216;28;20194;-81
2021/08/16 02:59:47;;;;;;;1999.90;999.90;;;20.20;93.80;;;;;;5056365;28;20436;-81
2021/08/16 03:02:13;;;;;;;1999.90;999.90;;;20.20;94.40;;;;;;5059818;28;20180;-81
2021/08/16 03:04:39;;;;;;;1999.90;999.90;;;20.20;93.50;;;;;;5059752;28;20662;-80
2021/08/16 03:07:05;;;;;;;1999.90;999.90;;;20.10;93.60;;;;;;5059638;28;20227;-81
2021/08/16 03:09:31;;;;;;;1999.90;999.90;;;20.20;93.60;;;;;;5059408;28;20172;-81
2021/08/16 03:11:57;;;;;;;1999.90;999.90;;;20.10;94.10;;;;;;5059734;28;20406;-81
2021/08/16 03:14:23;;;;;;;1999.90;999.90;;;20.20;93.30;;;;;;5042247;28;20830;-81
2021/08/16 03:16:49;;;;;;;1999.90;999.90;;;20.10;93.80;;;;;;5059402;28;20462;-81
2021/08/16 03:19:15;;;;;;;1999.90;999.90;;;20.00;94.30;;;;;;5060257;28;20462;-81
2021/08/16 03:21:40;;;;;;;1999.90;999.90;;;20.10;94.00;;;;;;5059394;28;20209;-81
2021/08/16 03:24:06;;;;;;;1999.90;999.90;;;20.00;94.10;;;;;;5059362;28;20195;-81
2021/08/16 03:26:32;;;;;;;1999.90;999.90;;;20.00;94.00;;;;;;5041366;28;20205;-81
2021/08/16 03:28:58;;;;;;;1999.90;999.90;;;20.10;94.30;;;;;;5041708;28;20172;-81
2021/08/16 03:31:23;;;;;;;1999.90;999.90;;;19.90;94.80;;;;;;5041406;28;20419;-81
2021/08/16 03:33:49;;;;;;;1999.90;999.90;;;19.90;95.00;;;;;;5059313;28;20541;-81
2021/08/16 03:36:16;;;;;;;1999.90;999.90;;;19.80;95.50;;;;;;5059219;28;20223;-81
2021/08/16 03:38:42;;;;;;;1999.90;999.90;;;19.70;96.70;;;;;;5058452;28;20187;-81
2021/08/16 03:41:08;;;;;;;1999.90;999.90;;;19.70;96.80;;;;;;5059385;28;20407;-81
2021/08/16 03:43:36;;;;;;;1999.90;999.90;;;19.60;97.60;;;;;;5058280;28;20930;-80
2021/08/16 03:46:02;;;;;;;1999.90;999.90;;;19.60;97.50;;;;;;5039398;28;20729;-81
2021/08/16 03:48:28;;;;;;;1999.90;999.90;;;19.60;98.10;;;;;;5058811;28;20443;-81
2021/08/16 03:50:53;;;;;;;1999.90;999.90;;;19.60;98.00;;;;;;5058988;28;20494;-81
2021/08/16 03:53:19;;;;;;;1999.90;999.90;;;19.50;98.60;;;;;;5058791;28;20656;-81
2021/08/16 03:55:44;;;;;;;1999.90;999.90;;;19.50;99.30;;;;;;5058949;28;20529;-81
2021/08/16 03:58:10;;;;;;;1999.90;999.90;;;19.50;99.80;;;;;;5058815;28;20185;-81
2021/08/16 04:00:36;;;;;;;1999.90;999.90;;;19.50;99.90;;;;;;5040790;28;20183;-81
2021/08/16 04:03:02;;;;;;;1999.90;999.90;;;19.40;99.90;;;;;;5040694;28;20173;-81
2021/08/16 04:05:27;;;;;;;1999.90;999.90;;;19.30;99.90;;;;;;5058625;28;20257;-81
2021/08/16 04:07:53;;;;;;;1999.90;999.90;;;19.30;99.90;;;;;;5057765;28;20188;-81
2021/08/16 04:10:19;;;;;;;1999.90;999.90;;;19.30;99.90;;;;;;5058220;28;20171;-81
2021/08/16 04:12:45;;;;;;;1999.90;999.90;;;19.30;99.90;;;;;;5058308;28;20249;-81
2021/08/16 04:15:16;;;;;;;1999.90;999.90;;;19.40;99.90;;;;;;5058244;28;20451;-81
2021/08/16 04:17:43;;;;;;;1999.90;999.90;;;19.50;99.90;;;;;;5058308;28;20510;-81
2021/08/16 04:20:11;;;;;;;1999.90;999.90;;;19.50;99.90;;;;;;5058510;28;20407;-81
2021/08/16 04:22:37;;;;;;;1999.90;999.90;;;19.50;99.90;;;;;;5040228;28;20418;-81
2021/08/16 04:25:08;;;;;;;1999.90;999.90;;;19.40;99.90;;;;;;5057947;28;20433;-81
2021/08/16 04:27:34;;;;;;;1999.90;999.90;;;19.40;99.90;;;;;;5040050;28;20470;-81
2021/08/16 04:30:00;;;;;;;1999.90;999.90;;;19.40;99.90;;;;;;5057394;28;20907;-81
2021/08/16 04:32:27;;;;;;;1999.90;999.90;;;19.30;99.90;;;;;;5040423;28;20419;-81
2021/08/16 04:34:53;;;;;;;1999.90;999.90;;;19.30;99.90;;;;;;5040239;28;20890;-81
2021/08/16 04:37:19;;;;;;;1999.90;999.90;;;19.30;99.90;;;;;;5058118;28;20462;-81
2021/08/16 04:39:44;;;;;;;1999.90;999.90;;;19.30;99.90;;;;;;5057852;28;20176;-81
2021/08/16 04:42:10;;;;;;;1999.90;999.90;;;19.20;99.90;;;;;;5039687;28;20177;-81
2021/08/16 04:44:36;;;;;;;1999.90;999.90;;;19.30;99.90;;;;;;5058286;28;20521;-81
2021/08/16 04:47:01;;;;;;;1999.90;999.90;;;19.10;99.90;;;;;;5058212;28;20231;-81
2021/08/16 04:49:27;;;;;;;1999.90;999.90;;;19.20;99.90;;;;;;5039902;28;20169;-81
2021/08/16 04:51:52;;;;;;;1999.90;999.90;;;19.20;99.90;;;;;;5057376;28;20193;-81
2021/08/16 04:54:18;;;;;;;1999.90;999.90;;;19.30;99.90;;;;;;5039713;28;20213;-81
2021/08/16 04:56:44;;;;;;;1999.90;999.90;;;19.40;99.90;;;;;;5057477;28;20192;-80
2021/08/16 04:59:10;;;;;;;1999.90;999.90;;;19.30;99.90;;;;;;5039635;28;20642;-81
2021/08/16 05:01:37;;;;;;;1999.90;999.90;;;19.30;99.90;;;;;;5057092;28;20165;-81
2021/08/16 05:04:03;;;;;;;1999.90;999.90;;;19.30;99.90;;;;;;5056968;28;20306;-81
2021/08/16 05:06:29;;;;;;;1999.90;999.90;;;19.30;99.90;;;;;;5057238;28;20466;-82
2021/08/16 05:08:56;;;;;;;1999.90;999.90;;;19.30;99.90;;;;;;5056905;28;20415;-81
2021/08/16 05:11:23;;;;;;;1999.90;999.90;;;19.30;99.90;;;;;;5039661;28;20169;-81
2021/08/16 05:13:49;;;;;;;1999.90;999.90;;;19.20;99.90;;;;;;5056897;28;20414;-81
2021/08/16 05:16:25;;;;;;;1999.90;999.90;;;19.20;99.90;;;;;;5039575;28;20415;-81
2021/08/16 05:18:52;;;;;;;1999.90;999.90;;;18.90;99.90;;;;;;5039752;28;20569;-81
2021/08/16 05:21:19;;;;;;;1999.90;999.90;;;18.90;99.90;;;;;;5057148;28;20395;-81
2021/08/16 05:23:44;;;;;;;1999.90;999.90;;;18.90;99.90;;;;;;5038189;28;20438;-81
2021/08/16 05:26:10;;;;;;;1999.90;999.90;;;18.90;99.90;;;;;;5056652;28;20443;-80
2021/08/16 05:28:36;;;;;;;1999.90;999.90;;;19.00;99.90;;;;;;5057627;28;20223;-81
2021/08/16 05:31:02;;;;;;;1999.90;999.90;;;19.10;99.90;;;;;;5057871;28;20241;-80
2021/08/16 05:33:27;;;;;;;1999.90;999.90;;;19.00;99.90;;;;;;5056490;28;20175;-81
2021/08/16 05:35:53;;;;;;;1999.90;999.90;;;19.00;99.90;;;;;;5038726;28;20176;-81
2021/08/16 05:38:19;;;;;;;1999.90;999.90;;;18.90;99.90;;;;;;5056128;28;20431;-81
2021/08/16 05:40:44;;;;;;;1999.90;999.90;;;18.90;99.90;;;;;;5056305;28;20632;-82
2021/08/16 05:43:10;;;;;;;1999.90;999.90;;;18.80;99.90;;;;;;5056573;28;20173;-81
2021/08/16 05:45:36;;;;;;;1999.90;999.90;;;18.70;99.90;;;;;;5056398;28;20200;-81
2021/08/16 05:48:02;;;;;;;1999.90;999.90;;;18.80;99.90;;;;;;5056004;28;20189;-81
2021/08/16 05:53:00;;;;;;;1999.90;999.90;;;18.80;99.90;;;;;;5052799;28;20438;-85
2021/08/16 05:55:26;;;;;;;1999.90;999.90;;;18.80;99.90;;;;;;5036901;28;20419;-85
2021/08/16 05:57:52;;;;;;;1999.90;999.90;;;18.80;99.90;;;;;;5035969;28;20434;-85
2021/08/16 06:00:18;;;;;;;1999.90;999.90;;;18.80;99.90;;;;;;5054376;28;20548;-85
2021/08/16 06:02:45;;;;;;;1999.90;999.90;;;18.80;99.90;;;;;;5036473;28;20179;-85
2021/08/16 06:05:10;;;;;;;1999.90;999.90;;;18.90;99.90;;;;;;5055092;28;20391;-85
2021/08/16 06:07:36;;;;;;;1999.90;999.90;;;19.00;99.90;;;;;;5054575;28;20969;-85
2021/08/16 06:10:04;;;;;;;1999.90;999.90;;;19.00;99.90;;;;;;5036999;28;20595;-85
2021/08/16 06:12:30;;;;;;;1999.90;999.90;;;18.90;99.90;;;;;;5054252;28;20399;-85
2021/08/16 06:14:55;;;;;;;1999.90;999.90;;;18.90;99.90;;;;;;5054520;28;20392;-85
2021/08/16 06:17:24;;;;;;;1999.90;999.90;;;19.00;99.90;;;;;;5053962;28;20230;-85
2021/08/16 06:19:50;;;;;;;1999.90;999.90;;;19.00;99.90;;;;;;5036698;28;20180;-85
2021/08/16 06:22:15;;;;;;;1999.90;999.90;;;19.10;99.90;;;;;;5036923;28;20420;-85
2021/08/16 06:24:41;;;;;;;1999.90;999.90;;;19.20;99.90;;;;;;5054080;28;20164;-85
2021/08/16 06:27:09;;;;;;;1999.90;999.90;;;19.30;99.90;;;;;;5053877;28;20687;-85
2021/08/16 06:29:35;;;;;;;1999.90;999.90;;;19.30;99.90;;;;;;5035943;28;20255;-85
2021/08/16 06:32:01;;;;;;;1999.90;999.90;;;19.40;99.90;;;;;;5035960;28;20479;-85
2021/08/16 06:34:27;;;;;;;1999.90;999.90;;;19.30;99.90;;;;;;5053705;28;20705;-85
2021/08/16 06:36:56;;;;;;;1999.90;999.90;;;19.30;99.90;;;;;;5035762;28;20196;-85
2021/08/16 06:39:23;;;;;;;1999.90;999.90;;;19.00;99.90;;;;;;5036665;28;20164;-85
2021/08/16 06:41:51;;;;;;;1999.90;999.90;;;19.00;99.90;;;;;;5036012;28;20423;-85
2021/08/16 06:44:19;;;;;;;1999.90;999.90;;;19.10;99.90;;;;;;5054217;28;20485;-85
2021/08/16 06:46:46;;;;;;;1999.90;999.90;;;19.10;99.90;;;;;;5053895;28;20532;-85
2021/08/16 06:49:11;;;;;;;1999.90;999.90;;;19.20;99.90;;;;;;5054132;28;20431;-85
2021/08/16 06:51:37;;;;;;;1999.90;999.90;;;19.30;99.90;;;;;;5053709;28;20917;-85
2021/08/16 06:54:03;;;;;;;1999.90;999.90;;;19.30;99.90;;;;;;5035251;28;20443;-86
2021/08/16 06:56:29;;;;;;;1999.90;999.90;;;19.40;99.90;;;;;;5035378;28;20267;-85
2021/08/16 06:58:55;;;;;;;1999.90;999.90;;;19.50;99.90;;;;;;5054053;28;20404;-85
2021/08/16 07:01:26;;;;;;;1999.90;999.90;;;19.50;99.90;;;;;;5054335;28;20570;-85
2021/08/16 07:03:53;;;;;;;1999.90;999.90;;;19.60;99.90;;;;;;5053786;28;20494;-85
2021/08/16 07:06:18;;;;;;;1999.90;999.90;;;19.50;99.90;;;;;;5035273;28;20451;-85
2021/08/16 07:08:45;;;;;;;1999.90;999.90;;;19.50;99.90;;;;;;5053223;28;20415;-85
2021/08/16 07:11:13;;;;;;;1999.90;999.90;;;19.50;99.90;;;;;;5054174;28;20171;-85
2021/08/16 07:13:38;;;;;;;1999.90;999.90;;;19.50;99.90;;;;;;5053641;28;20448;-85
2021/08/16 07:16:05;;;;;;;1999.90;999.90;;;19.60;99.90;;;;;;5053606;28;20404;-85
2021/08/16 07:18:34;;;;;;;1999.90;999.90;;;19.50;99.90;;;;;;5053738;28;20398;-85
2021/08/16 07:21:00;;;;;;;1999.90;999.90;;;19.60;99.90;;;;;;5035809;28;20443;-85
2021/08/16 07:23:26;;;;;;;1999.90;999.90;;;19.70;99.90;;;;;;5035695;28;20397;-85
2021/08/16 07:25:51;;;;;;;1999.90;999.90;;;19.80;99.90;;;;;;5053350;28;20450;-85
2021/08/16 07:28:17;;;;;;;1999.90;999.90;;;19.80;99.90;;;;;;5052751;28;20655;-85
2021/08/16 07:30:43;;;;;;;1999.90;999.90;;;19.80;99.90;;;;;;5035095;28;20642;-85
2021/08/16 07:33:14;;;;;;;1999.90;999.90;;;19.90;99.90;;;;;;5053110;28;20571;-85
2021/08/16 07:35:40;;;;;;;1999.90;999.90;;;19.90;99.90;;;;;;5053426;28;20652;-85
2021/08/16 07:38:06;;;;;;;1999.90;999.90;;;19.90;99.90;;;;;;5052789;28;20427;-85
2021/08/16 07:40:32;;;;;;;1999.90;999.90;;;20.00;99.90;;;;;;5052772;28;20221;-85
2021/08/16 07:42:57;;;;;;;1999.90;999.90;;;20.10;99.90;;;;;;5052626;28;20163;-85
2021/08/16 07:45:23;;;;;;;1999.90;999.90;;;20.10;99.90;;;;;;5052972;28;20454;-85
2021/08/16 07:47:51;;;;;;;1999.90;999.90;;;20.10;99.90;;;;;;5038277;28;20271;-86
2021/08/16 07:50:17;;;;;;;1999.90;999.90;;;20.20;99.90;;;;;;5056708;28;20248;-85
2021/08/16 07:52:44;;;;;;;1999.90;999.90;;;20.10;99.90;;;;;;5056304;28;20457;-85
2021/08/16 07:55:16;;;;;;;1999.90;999.90;;;19.70;99.90;;;;;;5056038;28;20163;-85
2021/08/16 07:57:42;;;;;;;1999.90;999.90;;;19.50;99.90;;;;;;5037919;28;20431;-86
2021/08/16 08:00:09;;;;;;;1999.90;999.90;;;19.40;99.90;;;;;;5055819;28;20406;-86
2021/08/16 08:02:43;;;;;;;1999.90;999.90;;;19.50;99.90;;;;;;5055745;28;20172;-85
2021/08/16 08:05:11;;;;;;;1999.90;999.90;;;19.50;99.90;;;;;;5055813;28;20411;-86
2021/08/16 08:07:46;;;;;;;1999.90;999.90;;;19.60;99.90;;;;;;5055804;28;20491;-86
2021/08/16 08:10:14;;;;;;;1999.90;999.90;;;19.70;99.90;;;;;;5038170;28;20392;-86
2021/08/16 08:12:43;;;;;;;1999.90;999.90;;;19.70;99.90;;;;;;5037529;28;20400;-85
2021/08/16 08:15:09;;;;;;;1999.90;999.90;;;19.70;99.90;;;;;;5055491;28;20392;-86
2021/08/16 08:17:35;;;;;;;1999.90;999.90;;;19.70;99.90;;;;;;5055246;28;20502;-85
2021/08/16 08:20:08;;;;;;;1999.90;999.90;;;19.90;99.90;;;;;;5055705;28;20391;-85
2021/08/16 08:22:49;;;;;;;1999.90;999.90;;;20.10;99.90;;;;;;5055546;28;20739;-86
2021/08/16 08:25:20;;;;;;;1999.90;999.90;;;20.00;99.90;;;;;;5055233;28;20932;-86
2021/08/16 08:27:46;;;;;;;1999.90;999.90;;;19.90;99.90;;;;;;5055081;28;20587;-86
2021/08/16 08:30:12;;;;;;;1999.90;999.90;;;20.00;99.90;;;;;;5054976;28;20508;-85
2021/08/16 08:32:56;;;;;;;1999.90;999.90;;;20.10;99.90;;;;;;5038091;28;20436;-85
2021/08/16 08:35:23;;;;;;;1999.90;999.90;;;20.20;99.90;;;;;;5037236;28;20405;-85
2021/08/16 08:38:12;;;;;;;1999.90;999.90;;;20.40;99.90;;;;;;5054760;28;20469;-85
2021/08/16 08:40:48;;;;;;;1999.90;999.90;;;20.50;99.90;;;;;;5043401;28;20415;-85
2021/08/16 08:43:18;;;;;;;1999.90;999.90;;;20.60;99.90;;;;;;5055105;28;20384;-86
2021/08/16 08:45:46;;;;;;;1999.90;999.90;;;20.70;99.90;;;;;;5055079;28;20567;-85
2021/08/16 08:48:15;;;;;;;1999.90;999.90;;;20.70;99.90;;;;;;5036850;28;20781;-86
2021/08/16 08:50:41;;;;;;;1999.90;999.90;;;20.80;99.90;;;;;;5055232;28;20899;-86
2021/08/16 08:53:07;;;;;;;1999.90;999.90;;;20.80;99.90;;;;;;5054843;28;20406;-85
2021/08/16 08:55:33;;;;;;;1999.90;999.90;;;20.90;99.90;;;;;;5055013;28;20440;-85
2021/08/16 08:58:01;;;;;;;1999.90;999.90;;;20.70;99.90;;;;;;5036721;28;20192;-86
2021/08/16 09:00:26;;;;;;;1999.90;999.90;;;20.60;99.90;;;;;;5054605;28;20170;-85
2021/08/16 09:02:59;;;;;;;1999.90;999.90;;;20.60;99.90;;;;;;5054557;28;20406;-85
2021/08/16 09:05:25;;;;;;;1999.90;999.90;;;20.60;99.90;;;;;;5054578;28;20530;-85
2021/08/16 09:07:51;;;;;;;1999.90;999.90;;;20.70;99.90;;;;;;5037675;28;20999;-85
2021/08/16 09:10:17;;;;;;;1999.90;999.90;;;20.90;99.90;;;;;;5056685;28;20442;-85
2021/08/16 09:12:44;;;;;;;1999.90;999.90;;;21.10;99.90;;;;;;5056526;28;20394;-84
2021/08/16 09:15:23;;;;;;;1999.90;999.90;;;21.30;99.90;;;;;;5037925;28;20448;-86
2021/08/16 09:17:49;;;;;;;1999.90;999.90;;;21.50;99.90;;;;;;5055615;28;20451;-85
2021/08/16 09:20:34;;;;;;;1999.90;999.90;;;21.70;99.90;;;;;;5055501;28;20409;-86
2021/08/16 09:23:02;;;;;;;1999.90;999.90;;;21.90;99.90;;;;;;5038293;28;20508;-85
2021/08/16 09:25:36;;;;;;;1999.90;999.90;;;21.90;99.90;;;;;;5055709;28;20410;-85
2021/08/16 09:28:06;;;;;;;1999.90;999.90;;;22.10;99.90;;;;;;5038612;28;20454;-85
2021/08/16 09:30:40;;;;;;;1999.90;999.90;;;22.20;99.90;;;;;;5057412;28;20468;-85
2021/08/16 09:33:13;;;;;;;1999.90;999.90;;;22.30;99.90;;;;;;5038829;28;20498;-84
2021/08/16 09:35:58;;;;;;;1999.90;999.90;;;22.40;99.00;;;;;;5056248;28;20926;-83
2021/08/16 09:38:37;;;;;;;1999.90;999.90;;;22.50;97.90;;;;;;5039565;28;20434;-84
2021/08/16 09:41:05;;;;;;;1999.90;999.90;;;22.30;97.40;;;;;;5038510;28;20411;-84
2021/08/16 09:43:30;;;;;;;1999.90;999.90;;;22.30;97.70;;;;;;5039204;28;20497;-84
2021/08/16 09:46:00;;;;;;;1999.90;999.90;;;22.20;97.70;;;;;;5056551;28;20474;-84
2021/08/16 09:48:29;;;;;;;1999.90;999.90;;;22.20;96.70;;;;;;5055893;28;20185;-84
2021/08/16 09:50:55;;;;;;;1999.90;999.90;;;22.10;97.20;;;;;;5056327;28;20438;-83
2021/08/16 09:53:24;;;;;;;1999.90;999.90;;;22.20;96.20;;;;;;5038605;28;20407;-84
2021/08/16 09:55:57;;;;;;;1999.90;999.90;;;22.10;98.40;;;;;;5038298;28;20416;-84
2021/08/16 09:58:23;;;;;;;1999.90;999.90;;;22.00;98.80;;;;;;5054762;28;20510;-85
2021/08/16 10:01:24;;;;;;;1999.90;999.90;;;22.00;96.10;;;;;;5036210;28;20538;-86
2021/08/16 10:04:08;;;;;;;1999.90;999.90;;;21.90;95.30;;;;;;5033789;28;20928;-86
2021/08/16 10:06:34;;;;;;;1999.90;999.90;;;21.70;96.00;;;;;;5053852;28;20845;-87
2021/08/16 10:09:22;;;;;;;1999.90;999.90;;;21.80;96.70;;;;;;5054135;28;20399;-87
2021/08/16 10:11:54;;;;;;;1999.90;999.90;;;21.70;97.00;;;;;;5036543;28;20408;-86
2021/08/16 10:14:24;;;;;;;1999.90;999.90;;;21.40;98.20;;;;;;5053905;28;20386;-85
2021/08/16 10:16:54;;;;;;;1999.90;999.90;;;21.50;99.90;;;;;;5053659;28;20438;-86
2021/08/16 10:19:26;;;;;;;1999.90;999.90;;;21.90;99.70;;;;;;5054117;28;20419;-86
2021/08/16 10:22:00;;;;;;;1999.90;999.90;;;22.10;96.80;;;;;;5019853;28;20465;-86
2021/08/16 10:24:30;;;;;;;1999.90;999.90;;;22.20;93.70;;;;;;5053646;28;20395;-86
2021/08/16 10:27:04;;;;;;;1999.90;999.90;;;22.10;94.60;;;;;;5053022;28;20457;-87
2021/08/16 10:29:38;;;;;;;1999.90;999.90;;;22.00;94.30;;;;;;5053500;28;20743;-84
2021/08/16 10:38:36;;;;;;;1999.90;999.90;;;22.30;95.80;;;;;;4895822;29;20421;-85
2021/08/16 10:41:45;;;;;;;1999.90;999.90;;;22.70;95.40;;;;;;5035302;28;21077;-85
2021/08/16 10:44:20;;;;;;;1999.90;999.90;;;22.90;94.20;;;;;;5047233;28;20763;-87
2021/08/16 10:47:16;;;;;;;;;;;;;;;;;;;;;
2021/08/16 10:50:12;;;;;;;1999.90;999.90;;;22.80;90.00;;;;;;4996537;28;21014;-86
2021/08/16 10:52:41;;;;;;;1999.90;999.90;;;22.70;91.10;;;;;;5004844;28;20432;-84
2021/08/16 10:55:25;;;;;;;1999.90;999.90;;;22.70;92.40;;;;;;5013055;28;20498;-88
2021/08/16 10:57:51;;;;;;;1999.90;999.90;;;22.50;92.00;;;;;;5054257;28;20785;-85
2021/08/16 11:00:18;;;;;;;1999.90;999.90;;;22.40;91.70;;;;;;5053023;28;20490;-85
2021/08/16 11:02:43;;;;;;;1999.90;999.90;;;22.30;92.50;;;;;;5053375;28;20789;-85
2021/08/16 11:05:14;;;;;;;1999.90;999.90;;;22.30;92.90;;;;;;5035300;28;20419;-86
2021/08/16 11:08:01;;;;;;;1999.90;999.90;;;22.10;93.30;;;;;;5054217;28;20541;-85
2021/08/16 11:10:31;;;;;;;1999.90;999.90;;;21.90;94.10;;;;;;5035388;28;20417;-86
2021/08/16 11:12:57;;;;;;;1999.90;999.90;;;21.70;99.90;;;;;;5053985;28;20428;-86
2021/08/16 11:15:35;;;;;;;1999.90;999.90;;;21.30;99.90;;;;;;5052877;28;20395;-86
2021/08/16 11:18:21;;;;;;;1999.90;999.90;;;21.00;99.90;;;;;;5035596;28;20422;-85
2021/08/16 11:21:00;;;;;;;1999.90;999.90;;;20.90;99.90;;;;;;5054391;28;20398;-87
2021/08/16 11:23:26;;;;;;;1999.90;999.90;;;20.70;99.90;;;;;;5038975;28;20962;-85
2021/08/16 11:25:56;;;;;;;1999.90;999.90;;;20.80;99.90;;;;;;5057179;28;20438;-85
2021/08/16 11:28:24;;;;;;;1999.90;999.90;;;20.80;99.90;;;;;;5057465;28;20564;-86
2021/08/16 11:30:58;;;;;;;1999.90;999.90;;;20.70;99.90;;;;;;5057543;28;20430;-85
2021/08/16 11:33:25;;;;;;;1999.90;999.90;;;20.80;99.90;;;;;;5058333;28;20394;-85
2021/08/16 11:36:15;;;;;;;1999.90;999.90;;;20.70;99.90;;;;;;5039208;28;20421;-86
2021/08/16 11:38:43;;;;;;;1999.90;999.90;;;20.40;99.90;;;;;;5059524;28;20426;-85
2021/08/16 11:41:13;;;;;;;1999.90;999.90;;;20.00;99.90;;;;;;5039856;28;20488;-85
2021/08/16 11:43:39;;;;;;;1999.90;999.90;;;19.90;99.90;;;;;;5059385;28;20474;-85
2021/08/16 11:46:16;;;;;;;1999.90;999.90;;;19.90;99.90;;;;;;5060512;28;20512;-86
2021/08/16 11:48:49;;;;;;;1999.90;999.90;;;19.80;99.90;;;;;;5058725;28;20191;-85
2021/08/16 11:51:15;;;;;;;1999.90;999.90;;;19.80;99.90;;;;;;5113873;22;20483;-80
2021/08/16 11:53:45;;;;;;;1999.90;999.90;;;19.90;99.90;;;;;;5060456;28;20375;-81
2021/08/16 11:56:25;;;;;;;1999.90;999.90;;;20.00;99.90;;;;;;5060345;28;20153;-81
2021/08/16 11:58:50;;;;;;;1999.90;999.90;;;19.80;99.90;;;;;;5044024;28;20438;-80
2021/08/16 12:01:18;;;;;;;1999.90;999.90;;;19.70;99.90;;;;;;5041975;28;20403;-81
2021/08/16 12:03:44;;;;;;;1999.90;999.90;;;19.70;99.90;;;;;;5059923;28;20430;-79
2021/08/16 12:06:16;;;;;;;1999.90;999.90;;;19.80;99.90;;;;;;5041764;28;20970;-79
2021/08/16 12:08:42;;;;;;;1999.90;999.90;;;19.80;99.90;;;;;;5060108;28;20148;-79
2021/08/16 12:11:13;;;;;;;1999.90;999.90;;;19.80;99.90;;;;;;5060514;28;20845;-79
2021/08/16 12:13:39;;;;;;;1999.90;999.90;;;19.90;99.90;;;;;;5060852;28;20379;-79
2021/08/16 12:16:06;;;;;;;1999.90;999.90;;;19.90;99.90;;;;;;5059171;28;20986;-79